Time;durP1;ratioP1;P1;durP2;ratioP2;P2;SDS_P1;SDS_P2;PMS_P1;PMS_P2;Temp;Humidity;BMP_temperature;BMP_pressure;BME280_temperature;BME280_humidity;BME280_pressure;Samples;Min_cycle;Max_cycle;Signal;HPM_P1;HPM_P2
2021/06/16 00:00:07;;;;;;;0.38;0.38;;;19.20;67.60;;;;;;5072533;28;20047;-76
2021/06/16 00:02:33;;;;;;;0.13;0.13;;;19.10;68.10;;;;;;5072136;28;20020;-76
2021/06/16 00:04:59;;;;;;;0.10;0.10;;;19.00;68.40;;;;;;5073225;28;20016;-76
2021/06/16 00:07:25;;;;;;;0.22;0.22;;;19.00;68.60;;;;;;5057868;28;20031;-76
2021/06/16 00:09:51;;;;;;;0.10;0.10;;;19.10;68.30;;;;;;5057979;28;20475;-76
2021/06/16 00:12:16;;;;;;;0.13;0.13;;;19.20;67.80;;;;;;5057626;28;20048;-76
2021/06/16 00:14:42;;;;;;;0.10;0.10;;;19.00;67.80;;;;;;5075764;28;20033;-76
2021/06/16 00:17:08;;;;;;;0.77;0.77;;;19.10;68.30;;;;;;5075620;28;20036;-76
2021/06/16 00:19:35;;;;;;;0.10;0.10;;;19.10;68.30;;;;;;5075646;28;20391;-76
2021/06/16 00:22:01;;;;;;;0.20;0.20;;;18.90;68.50;;;;;;5057596;28;20017;-76
2021/06/16 00:24:28;;;;;;;0.10;0.10;;;18.90;68.70;;;;;;5075605;28;20020;-76
2021/06/16 00:26:53;;;;;;;0.10;0.10;;;18.80;69.20;;;;;;5075910;28;20473;-76
2021/06/16 00:29:19;;;;;;;0.10;0.10;;;18.70;69.30;;;;;;5075440;28;20103;-76
2021/06/16 00:31:45;;;;;;;1.02;0.90;;;18.60;69.90;;;;;;5075447;28;20021;-76
2021/06/16 00:34:12;;;;;;;0.50;0.50;;;18.50;70.00;;;;;;5057645;28;20051;-76
2021/06/16 00:36:37;;;;;;;7.28;6.80;;;18.20;70.70;;;;;;5075282;28;20103;-76
2021/06/16 00:39:07;;;;;;;0.20;0.20;;;18.00;71.80;;;;;;5075323;28;20108;-76
2021/06/16 00:41:33;;;;;;;0.10;0.10;;;17.90;72.30;;;;;;5075245;28;20161;-76
2021/06/16 00:43:59;;;;;;;0.20;0.20;;;18.00;72.40;;;;;;5075299;28;20034;-76
2021/06/16 00:46:25;;;;;;;0.30;0.30;;;18.10;71.90;;;;;;5075231;28;20052;-76
2021/06/16 00:48:50;;;;;;;0.20;0.20;;;18.20;71.30;;;;;;5075231;28;20048;-76
2021/06/16 00:51:16;;;;;;;0.20;0.20;;;18.30;71.20;;;;;;5075603;28;20025;-75
2021/06/16 00:53:42;;;;;;;0.43;0.43;;;18.30;70.80;;;;;;5075156;28;20090;-76
2021/06/16 00:56:08;;;;;;;0.10;0.10;;;18.20;71.00;;;;;;5075166;28;20063;-76
2021/06/16 00:58:34;;;;;;;0.45;0.45;;;18.30;71.20;;;;;;5075196;28;20388;-76
2021/06/16 01:01:09;;;;;;;0.40;0.40;;;18.20;71.30;;;;;;5057075;28;20476;-76
2021/06/16 01:03:53;;;;;;;0.10;0.10;;;18.10;71.50;;;;;;5074802;28;20103;-76
2021/06/16 01:06:52;;;;;;;0.73;0.73;;;17.90;72.30;;;;;;5074712;28;20099;-76
2021/06/16 01:09:28;;;;;;;0.40;0.40;;;17.70;72.80;;;;;;5069541;28;20035;-75
2021/06/16 01:11:56;;;;;;;0.40;0.40;;;17.70;73.10;;;;;;5074530;28;20033;-76
2021/06/16 01:14:34;;;;;;;4.18;1.05;;;17.60;73.40;;;;;;5056910;28;20039;-76
2021/06/16 01:17:03;;;;;;;0.68;0.68;;;17.60;73.40;;;;;;5074260;28;20025;-76
2021/06/16 01:19:44;;;;;;;0.10;0.10;;;17.50;73.70;;;;;;5056566;28;20028;-76
2021/06/16 01:22:34;;;;;;;0.63;0.63;;;17.50;73.80;;;;;;5056498;28;20056;-75
2021/06/16 01:25:06;;;;;;;0.10;0.10;;;17.50;73.80;;;;;;5074459;28;20184;-76
2021/06/16 01:27:33;;;;;;;0.10;0.10;;;17.60;73.70;;;;;;5074537;28;20380;-76
2021/06/16 01:30:02;;;;;;;0.47;0.47;;;17.70;73.40;;;;;;5074358;28;20032;-76
2021/06/16 01:32:28;;;;;;;0.25;0.25;;;17.80;72.70;;;;;;5074285;28;20055;-76
2021/06/16 01:34:54;;;;;;;0.57;0.57;;;17.80;72.80;;;;;;5074257;28;20037;-76
2021/06/16 01:37:20;;;;;;;1.65;1.17;;;17.70;72.60;;;;;;5074039;28;20029;-75
2021/06/16 01:39:46;;;;;;;1.05;1.05;;;17.60;73.10;;;;;;5074103;28;20548;-76
2021/06/16 01:42:19;;;;;;;0.93;0.63;;;17.50;73.60;;;;;;5074043;28;20106;-76
2021/06/16 01:44:49;;;;;;;0.20;0.20;;;17.50;73.80;;;;;;5074105;28;20020;-76
2021/06/16 01:47:17;;;;;;;0.10;0.10;;;17.60;73.30;;;;;;5074278;28;20028;-76
2021/06/16 01:49:46;;;;;;;0.20;0.20;;;17.60;73.10;;;;;;5073954;28;20028;-76
2021/06/16 01:52:12;;;;;;;0.45;0.45;;;17.70;73.10;;;;;;5073798;28;20024;-76
2021/06/16 01:54:38;;;;;;;0.40;0.40;;;17.70;72.90;;;;;;5073765;28;20025;-76
2021/06/16 01:57:05;;;;;;;0.77;0.77;;;17.60;72.90;;;;;;5055802;28;20024;-76
2021/06/16 01:59:32;;;;;;;0.32;0.32;;;17.40;73.80;;;;;;5073817;28;20031;-76
2021/06/16 02:01:58;;;;;;;0.25;0.25;;;17.40;74.30;;;;;;5073662;28;20031;-76
2021/06/16 02:04:24;;;;;;;0.20;0.20;;;17.40;74.40;;;;;;5073589;28;20107;-76
2021/06/16 02:06:58;;;;;;;0.10;0.10;;;17.50;74.10;;;;;;5073669;28;20391;-76
2021/06/16 02:09:25;;;;;;;0.20;0.20;;;17.40;74.10;;;;;;5055695;28;20051;-76
2021/06/16 02:11:51;;;;;;;1.25;0.65;;;17.60;73.90;;;;;;5017595;22;20533;-70
2021/06/16 02:14:20;;;;;;;0.20;0.20;;;17.50;73.80;;;;;;4954086;28;20513;-71
2021/06/16 02:16:48;;;;;;;0.28;0.28;;;17.50;74.10;;;;;;4954031;28;20084;-71
2021/06/16 02:19:18;;;;;;;1.20;1.10;;;17.60;74.20;;;;;;4953616;28;20392;-71
2021/06/16 02:21:45;;;;;;;0.15;0.15;;;17.60;73.70;;;;;;4971265;28;20486;-71
2021/06/16 02:24:11;;;;;;;0.47;0.47;;;17.50;73.90;;;;;;4953717;28;20065;-71
2021/06/16 02:26:37;;;;;;;0.10;0.10;;;17.60;74.10;;;;;;4971097;28;20030;-71
2021/06/16 02:29:09;;;;;;;0.20;0.20;;;17.50;74.60;;;;;;4970172;28;20066;-71
2021/06/16 02:31:35;;;;;;;0.30;0.30;;;17.60;74.20;;;;;;4970958;28;20023;-71
2021/06/16 02:34:01;;;;;;;0.95;0.95;;;17.50;74.80;;;;;;4953676;28;20030;-71
2021/06/16 02:36:29;;;;;;;0.10;0.10;;;17.40;74.50;;;;;;4953517;28;20026;-71
2021/06/16 02:39:02;;;;;;;0.10;0.10;;;17.50;74.60;;;;;;4970751;28;20382;-71
2021/06/16 02:41:28;;;;;;;3.72;3.42;;;17.60;74.10;;;;;;4970789;28;20076;-71
2021/06/16 02:43:55;;;;;;;0.10;0.10;;;17.70;73.80;;;;;;4970915;28;20555;-71
2021/06/16 02:46:22;;;;;;;0.20;0.20;;;17.70;74.10;;;;;;4953466;28;20031;-71
2021/06/16 02:48:50;;;;;;;0.13;0.13;;;17.60;74.30;;;;;;4970679;28;20034;-71
2021/06/16 02:51:17;;;;;;;0.17;0.17;;;17.70;74.40;;;;;;4953400;28;20099;-71
2021/06/16 02:53:44;;;;;;;0.20;0.20;;;17.40;75.10;;;;;;4970747;28;20029;-71
2021/06/16 02:56:11;;;;;;;0.20;0.20;;;17.20;76.10;;;;;;4970545;28;20125;-71
2021/06/16 02:58:42;;;;;;;0.20;0.20;;;17.10;76.70;;;;;;4970583;28;20035;-71
2021/06/16 03:01:13;;;;;;;0.65;0.47;;;17.10;77.20;;;;;;4970434;28;20025;-71
2021/06/16 03:03:40;;;;;;;0.10;0.10;;;17.10;76.90;;;;;;4970592;28;20453;-71
2021/06/16 03:06:08;;;;;;;0.43;0.30;;;17.10;77.00;;;;;;4953406;28;20030;-71
2021/06/16 03:08:35;;;;;;;0.20;0.20;;;17.10;77.40;;;;;;4970218;28;20038;-71
2021/06/16 03:11:02;;;;;;;0.20;0.20;;;17.10;77.10;;;;;;4970317;28;20179;-71
2021/06/16 03:13:29;;;;;;;0.10;0.10;;;17.20;76.90;;;;;;4953195;28;20035;-71
2021/06/16 03:15:57;;;;;;;0.20;0.20;;;17.10;76.90;;;;;;4970293;28;20034;-71
2021/06/16 03:18:23;;;;;;;0.25;0.25;;;17.00;77.10;;;;;;4952859;28;20023;-70
2021/06/16 03:20:53;;;;;;;0.20;0.20;;;16.90;77.30;;;;;;4970154;28;20030;-71
2021/06/16 03:23:19;;;;;;;0.20;0.20;;;16.90;77.90;;;;;;4970337;28;20105;-71
2021/06/16 03:25:46;;;;;;;0.20;0.20;;;16.90;77.90;;;;;;4970367;28;20037;-71
2021/06/16 03:28:13;;;;;;;0.20;0.20;;;16.90;77.80;;;;;;4970275;28;20034;-71
2021/06/16 03:30:40;;;;;;;0.20;0.20;;;16.90;77.50;;;;;;4970184;28;20051;-71
2021/06/16 03:33:06;;;;;;;0.10;0.10;;;17.00;77.20;;;;;;4969960;28;20034;-71
2021/06/16 03:35:32;;;;;;;0.20;0.20;;;16.80;77.60;;;;;;4952819;28;20027;-71
2021/06/16 03:38:02;;;;;;;0.57;0.57;;;16.90;77.80;;;;;;4952554;28;20482;-71
2021/06/16 03:40:28;;;;;;;0.10;0.10;;;17.00;77.50;;;;;;4973221;28;20023;-71
2021/06/16 03:42:56;;;;;;;0.10;0.10;;;17.00;76.90;;;;;;4973688;28;20138;-71
2021/06/16 03:45:23;;;;;;;0.20;0.20;;;17.00;77.30;;;;;;4956119;28;20038;-71
2021/06/16 03:47:55;;;;;;;0.28;0.28;;;17.10;76.40;;;;;;4973176;28;20030;-71
2021/06/16 03:50:21;;;;;;;;;;;17.10;76.20;;;;;;4956698;28;20109;-71
2021/06/16 03:52:47;;;;;;;1.35;0.73;;;17.20;76.30;;;;;;4939961;28;19906;-71
2021/06/16 03:55:17;;;;;;;0.30;0.30;;;17.20;75.80;;;;;;4956023;28;20180;-71
2021/06/16 03:57:44;;;;;;;0.20;0.20;;;17.30;76.20;;;;;;4955820;28;20023;-71
2021/06/16 04:00:10;;;;;;;0.20;0.20;;;17.40;75.30;;;;;;4955765;28;20169;-71
2021/06/16 04:02:37;;;;;;;0.40;0.30;;;17.60;74.90;;;;;;4955883;28;20022;-71
2021/06/16 04:05:06;;;;;;;0.45;0.40;;;17.70;74.30;;;;;;4973304;28;20031;-71
2021/06/16 04:07:32;;;;;;;0.35;0.35;;;17.80;73.60;;;;;;4973038;28;20110;-70
2021/06/16 04:09:58;;;;;;;0.10;0.10;;;17.70;74.40;;;;;;4955697;28;20117;-71
2021/06/16 04:12:25;;;;;;;0.20;0.20;;;17.50;74.40;;;;;;4955732;28;20034;-71
2021/06/16 04:14:51;;;;;;;0.20;0.20;;;17.50;74.20;;;;;;4973129;28;20038;-71
2021/06/16 04:17:22;;;;;;;0.13;0.13;;;17.50;74.20;;;;;;4972759;28;20546;-71
2021/06/16 04:19:49;;;;;;;0.77;0.50;;;17.50;74.50;;;;;;4955834;28;20481;-71
2021/06/16 04:22:15;;;;;;;0.15;0.15;;;17.60;73.80;;;;;;4955442;28;20023;-71
2021/06/16 04:24:41;;;;;;;0.20;0.20;;;17.60;74.30;;;;;;4972790;28;20050;-71
2021/06/16 04:27:08;;;;;;;0.10;0.10;;;17.80;74.00;;;;;;4972811;28;20111;-71
2021/06/16 04:29:34;;;;;;;0.20;0.20;;;17.80;73.60;;;;;;4955498;28;20502;-71
2021/06/16 04:32:00;;;;;;;0.10;0.10;;;17.80;73.50;;;;;;4955425;28;20026;-71
2021/06/16 04:34:26;;;;;;;0.20;0.20;;;17.90;73.50;;;;;;4955423;28;20508;-71
2021/06/16 04:36:52;;;;;;;0.13;0.13;;;18.00;73.40;;;;;;4972519;28;20118;-71
2021/06/16 04:39:18;;;;;;;0.35;0.35;;;18.10;72.70;;;;;;4955020;28;20031;-71
2021/06/16 04:41:44;;;;;;;0.13;0.13;;;17.90;73.10;;;;;;4972533;28;20019;-71
2021/06/16 04:44:10;;;;;;;0.20;0.20;;;17.80;74.00;;;;;;4972530;28;20027;-71
2021/06/16 04:46:36;;;;;;;0.38;0.38;;;17.70;74.50;;;;;;4955253;28;20579;-70
2021/06/16 04:49:02;;;;;;;0.75;0.75;;;17.90;74.90;;;;;;4972387;28;20034;-71
2021/06/16 04:51:28;;;;;;;0.10;0.10;;;17.90;74.90;;;;;;4971831;28;20110;-71
2021/06/16 04:53:54;;;;;;;0.20;0.20;;;18.00;75.20;;;;;;4972513;28;20259;-71
2021/06/16 04:56:19;;;;;;;0.10;0.10;;;18.20;74.70;;;;;;4972469;28;20030;-71
2021/06/16 04:58:45;;;;;;;0.73;0.73;;;18.40;74.30;;;;;;4954986;28;20032;-71
2021/06/16 05:01:11;;;;;;;0.10;0.10;;;18.50;74.10;;;;;;4972224;28;20034;-71
2021/06/16 05:03:37;;;;;;;0.10;0.10;;;18.50;74.40;;;;;;4972414;28;20176;-71
2021/06/16 05:06:04;;;;;;;0.28;0.28;;;18.70;74.00;;;;;;4972359;28;20525;-71
2021/06/16 05:08:30;;;;;;;0.10;0.10;;;18.80;74.10;;;;;;4953200;28;20027;-71
2021/06/16 05:10:56;;;;;;;0.10;0.10;;;19.00;73.60;;;;;;4954469;28;20443;-71
2021/06/16 05:13:26;;;;;;;0.10;0.10;;;18.90;73.90;;;;;;4954695;28;20117;-71
2021/06/16 05:15:53;;;;;;;0.20;0.20;;;19.10;73.80;;;;;;4954655;28;20039;-71
2021/06/16 05:18:19;;;;;;;0.10;0.10;;;19.40;73.20;;;;;;4954734;28;20023;-71
2021/06/16 05:20:45;;;;;;;0.10;0.10;;;19.60;72.90;;;;;;4972098;28;20390;-71
2021/06/16 05:23:11;;;;;;;0.10;0.10;;;19.70;73.40;;;;;;4954240;28;20027;-71
2021/06/16 05:25:39;;;;;;;0.10;0.10;;;19.80;73.10;;;;;;4971925;28;20031;-71
2021/06/16 05:28:05;;;;;;;0.30;0.30;;;19.80;73.20;;;;;;4984832;28;20029;-72
2021/06/16 05:30:31;;;;;;;0.10;0.10;;;19.90;73.60;;;;;;4973639;28;20026;-71
2021/06/16 05:32:56;;;;;;;0.10;0.10;;;20.00;73.90;;;;;;4965150;28;20240;-72
2021/06/16 05:35:22;;;;;;;0.10;0.10;;;20.00;74.20;;;;;;4954295;28;20435;-72
2021/06/16 05:37:48;;;;;;;0.10;0.10;;;20.10;74.00;;;;;;4971627;28;20398;-71
2021/06/16 05:40:15;;;;;;;0.10;0.10;;;20.20;73.80;;;;;;4971498;28;20535;-71
2021/06/16 05:42:42;;;;;;;0.80;0.65;;;20.30;73.40;;;;;;4938426;28;20500;-71
2021/06/16 05:45:08;;;;;;;0.10;0.10;;;20.30;72.60;;;;;;4971425;28;20026;-71
2021/06/16 05:47:35;;;;;;;0.10;0.10;;;20.40;73.10;;;;;;4954213;28;20035;-71
2021/06/16 05:50:00;;;;;;;0.20;0.20;;;20.50;72.80;;;;;;4971531;28;20712;-71
2021/06/16 05:52:26;;;;;;;0.10;0.10;;;20.50;72.10;;;;;;4954117;28;20030;-71
2021/06/16 05:54:52;;;;;;;0.10;0.10;;;20.70;71.90;;;;;;4954174;28;20038;-72
2021/06/16 05:57:18;;;;;;;0.10;0.10;;;20.70;71.70;;;;;;4970853;28;20505;-71
2021/06/16 05:59:43;;;;;;;0.30;0.30;;;20.70;71.10;;;;;;4971198;28;20026;-70
2021/06/16 06:02:10;;;;;;;0.10;0.10;;;20.80;71.50;;;;;;4970528;28;20034;-71
2021/06/16 06:04:35;;;;;;;0.10;0.10;;;20.90;70.80;;;;;;4971234;28;20289;-71
2021/06/16 06:07:05;;;;;;;0.10;0.10;;;21.00;72.10;;;;;;4971350;28;20132;-71
2021/06/16 06:09:31;;;;;;;0.10;0.10;;;21.00;71.80;;;;;;4971152;28;20508;-71
2021/06/16 06:11:57;;;;;;;0.10;0.10;;;21.20;70.80;;;;;;4971773;28;20516;-71
2021/06/16 06:14:23;;;;;;;0.10;0.10;;;21.30;69.50;;;;;;4971708;28;20030;-72
2021/06/16 06:16:49;;;;;;;0.10;0.10;;;21.50;70.50;;;;;;4970945;28;20035;-71
2021/06/16 06:19:15;;;;;;;0.10;0.10;;;21.60;70.80;;;;;;4971332;28;20023;-71
2021/06/16 06:21:40;;;;;;;0.08;0.08;;;21.70;69.00;;;;;;4953774;28;20050;-71
2021/06/16 06:24:07;;;;;;;0.30;0.30;;;21.70;69.40;;;;;;4971022;28;20048;-71
2021/06/16 06:26:33;;;;;;;0.20;0.20;;;21.80;70.40;;;;;;4953338;28;20431;-73
2021/06/16 06:29:00;;;;;;;0.35;0.35;;;21.80;69.70;;;;;;4949556;28;20030;-73
2021/06/16 06:31:25;;;;;;;0.10;0.10;;;21.80;68.30;;;;;;4989454;28;20026;-73
2021/06/16 06:33:51;;;;;;;0.00;0.00;;;22.00;69.80;;;;;;4990308;28;20045;-73
2021/06/16 06:36:19;;;;;;;0.10;0.10;;;22.20;67.50;;;;;;4990116;28;20487;-73
2021/06/16 06:38:46;;;;;;;0.00;0.00;;;22.30;64.50;;;;;;4944517;28;20401;-73
2021/06/16 06:41:12;;;;;;;0.10;0.10;;;22.50;64.60;;;;;;4984611;28;20497;-73
2021/06/16 06:43:39;;;;;;;0.20;0.20;;;22.60;62.90;;;;;;4972706;28;20236;-73
2021/06/16 06:46:04;;;;;;;0.10;0.10;;;22.70;62.40;;;;;;4972636;28;20031;-73
2021/06/16 06:48:30;;;;;;;0.10;0.10;;;22.70;62.40;;;;;;4972668;28;20034;-72
2021/06/16 06:50:56;;;;;;;0.10;0.10;;;22.90;63.40;;;;;;4972321;28;20030;-73
2021/06/16 06:53:22;;;;;;;0.10;0.10;;;23.00;63.50;;;;;;4971920;28;20351;-73
2021/06/16 06:55:48;;;;;;;0.10;0.10;;;23.30;60.00;;;;;;4953293;28;20037;-73
2021/06/16 06:58:14;;;;;;;0.10;0.10;;;23.50;58.70;;;;;;4937188;28;20027;-73
2021/06/16 07:00:40;;;;;;;0.10;0.10;;;23.60;58.30;;;;;;4958303;28;20028;-73
2021/06/16 07:03:05;;;;;;;0.22;0.22;;;23.70;59.00;;;;;;4988574;28;20025;-73
2021/06/16 07:05:31;;;;;;;0.52;0.52;;;23.70;60.70;;;;;;5022197;28;20020;-73
2021/06/16 07:07:57;;;;;;;0.00;0.00;;;23.70;58.60;;;;;;5064276;28;20503;-73
2021/06/16 07:10:23;;;;;;;0.20;0.20;;;23.70;59.60;;;;;;5022297;28;20021;-73
2021/06/16 07:12:49;;;;;;;0.00;0.00;;;23.90;59.30;;;;;;4951292;28;20026;-73
2021/06/16 07:15:15;;;;;;;0.10;0.10;;;24.10;59.60;;;;;;5043004;28;20474;-73
2021/06/16 07:17:41;;;;;;;0.03;0.03;;;24.20;55.40;;;;;;5001817;28;20059;-75
2021/06/16 07:20:08;;;;;;;0.10;0.10;;;24.40;54.80;;;;;;4999220;28;20026;-72
2021/06/16 07:22:34;;;;;;;0.00;0.00;;;24.50;58.00;;;;;;4976951;28;20471;-73
2021/06/16 07:25:00;;;;;;;0.08;0.08;;;24.60;59.50;;;;;;5007313;28;20030;-73
2021/06/16 07:27:26;;;;;;;0.03;0.03;;;24.70;58.50;;;;;;4992226;28;20493;-73
2021/06/16 07:29:51;;;;;;;0.00;0.00;;;24.90;55.60;;;;;;5027232;28;20065;-73
2021/06/16 07:32:17;;;;;;;0.00;0.00;;;24.90;54.40;;;;;;5000956;28;20458;-72
2021/06/16 07:34:44;;;;;;;1.55;0.52;;;24.80;54.10;;;;;;4978160;28;20025;-73
2021/06/16 07:37:10;;;;;;;0.00;0.00;;;24.80;55.00;;;;;;4997296;28;20042;-73
2021/06/16 07:39:35;;;;;;;0.05;0.05;;;24.80;54.80;;;;;;4980420;28;20023;-73
2021/06/16 07:42:02;;;;;;;0.08;0.08;;;24.90;53.90;;;;;;5021000;28;20034;-74
2021/06/16 07:44:27;;;;;;;0.00;0.00;;;25.10;53.50;;;;;;4997890;28;20043;-72
2021/06/16 07:46:53;;;;;;;0.03;0.03;;;25.10;54.40;;;;;;4960785;28;20023;-74
2021/06/16 07:49:21;;;;;;;2.05;1.55;;;25.40;55.20;;;;;;4998294;28;20038;-74
2021/06/16 07:51:47;;;;;;;0.00;0.00;;;25.40;54.00;;;;;;4983748;28;20035;-73
2021/06/16 07:54:13;;;;;;;0.10;0.10;;;25.60;53.70;;;;;;5022480;28;20035;-73
2021/06/16 07:56:41;;;;;;;0.05;0.05;;;25.60;53.00;;;;;;4987234;28;20025;-74
2021/06/16 07:59:08;;;;;;;0.10;0.10;;;25.70;53.10;;;;;;4984459;28;20062;-73
2021/06/16 08:01:34;;;;;;;0.00;0.00;;;25.80;52.90;;;;;;5006115;28;20375;-73
2021/06/16 08:04:00;;;;;;;0.17;0.17;;;25.70;51.80;;;;;;4989816;28;20026;-72
2021/06/16 08:06:26;;;;;;;0.95;0.32;;;25.80;52.20;;;;;;4996980;28;20087;-73
2021/06/16 08:08:52;;;;;;;0.10;0.10;;;25.90;52.40;;;;;;5012641;28;20117;-73
2021/06/16 08:11:20;;;;;;;0.00;0.00;;;25.80;53.20;;;;;;4997022;28;20538;-74
2021/06/16 08:13:46;;;;;;;0.20;0.20;;;25.90;53.60;;;;;;4998072;28;20027;-72
2021/06/16 08:16:14;;;;;;;0.00;0.00;;;26.10;52.40;;;;;;5039341;28;20029;-73
2021/06/16 08:18:40;;;;;;;0.00;0.00;;;26.10;50.70;;;;;;5024881;28;20021;-73
2021/06/16 08:21:06;;;;;;;1.17;0.90;;;26.30;50.00;;;;;;5025959;28;20031;-74
2021/06/16 08:23:31;;;;;;;0.22;0.20;;;26.40;50.10;;;;;;4989995;28;20012;-73
2021/06/16 08:25:57;;;;;;;0.20;0.20;;;26.50;50.20;;;;;;4968543;28;20081;-73
2021/06/16 08:28:23;;;;;;;0.10;0.10;;;26.80;50.30;;;;;;5014506;28;20031;-73
2021/06/16 08:30:49;;;;;;;0.93;0.20;;;26.90;51.60;;;;;;5008770;28;20079;-74
2021/06/16 08:33:14;;;;;;;17.23;0.65;;;27.00;48.70;;;;;;5021218;28;20045;-73
2021/06/16 08:35:41;;;;;;;0.00;0.00;;;27.30;48.80;;;;;;5003281;28;20026;-73
2021/06/16 08:38:07;;;;;;;0.40;0.40;;;27.30;47.90;;;;;;4979791;28;20026;-73
2021/06/16 08:40:33;;;;;;;0.00;0.00;;;27.40;48.00;;;;;;4987713;28;20084;-73
2021/06/16 08:42:59;;;;;;;0.13;0.13;;;27.40;46.70;;;;;;4998255;28;20021;-73
2021/06/16 08:45:29;;;;;;;0.00;0.00;;;27.60;47.40;;;;;;5001752;28;20018;-72
2021/06/16 08:47:55;;;;;;;0.00;0.00;;;27.60;47.30;;;;;;4997400;28;20393;-73
2021/06/16 08:50:21;;;;;;;0.00;0.00;;;27.80;47.50;;;;;;4971339;28;20033;-73
2021/06/16 08:52:47;;;;;;;0.10;0.10;;;27.90;48.20;;;;;;5047263;28;20474;-73
2021/06/16 08:55:16;;;;;;;1.02;0.45;;;28.00;48.80;;;;;;5030014;28;20034;-74
2021/06/16 08:57:43;;;;;;;0.10;0.10;;;28.10;48.30;;;;;;5020969;28;20034;-74
2021/06/16 09:00:11;;;;;;;0.00;0.00;;;28.20;47.30;;;;;;4963196;28;20339;-72
2021/06/16 09:02:37;;;;;;;0.00;0.00;;;28.20;48.00;;;;;;4980722;28;20115;-73
2021/06/16 09:05:03;;;;;;;0.00;0.00;;;28.20;47.10;;;;;;5015462;28;20028;-74
2021/06/16 09:07:32;;;;;;;0.00;0.00;;;28.30;46.90;;;;;;5030977;28;20261;-73
2021/06/16 09:10:18;;;;;;;0.20;0.20;;;28.20;46.60;;;;;;5046777;28;20042;-73
2021/06/16 09:12:56;;;;;;;2.50;2.22;;;28.20;47.10;;;;;;4986204;28;20036;-73
2021/06/16 09:15:24;;;;;;;0.00;0.00;;;28.60;47.00;;;;;;5020317;28;20415;-73
2021/06/16 09:18:12;;;;;;;0.20;0.03;;;28.70;47.10;;;;;;5038352;28;20027;-73
2021/06/16 09:20:47;;;;;;;0.00;0.00;;;29.00;45.10;;;;;;4994245;28;20025;-73
2021/06/16 09:23:19;;;;;;;0.10;0.10;;;29.00;44.40;;;;;;5034571;28;20033;-73
2021/06/16 09:26:05;;;;;;;2.55;0.38;;;29.20;45.50;;;;;;4996182;28;20026;-73
2021/06/16 09:28:39;;;;;;;0.10;0.10;;;29.20;44.30;;;;;;5032986;28;20021;-74
2021/06/16 09:31:06;;;;;;;0.40;0.40;;;29.20;44.60;;;;;;4997561;28;20027;-73
2021/06/16 09:33:33;;;;;;;0.10;0.10;;;29.40;44.70;;;;;;5001729;28;20020;-73
2021/06/16 09:35:59;;;;;;;0.32;0.30;;;29.60;44.80;;;;;;5028444;28;20075;-73
2021/06/16 09:38:28;;;;;;;0.00;0.00;;;29.80;44.10;;;;;;4967584;28;20019;-73
2021/06/16 09:40:55;;;;;;;0.00;0.00;;;30.00;42.60;;;;;;4998428;28;20044;-73
2021/06/16 09:43:22;;;;;;;0.00;0.00;;;29.90;43.10;;;;;;4999937;28;20030;-74
2021/06/16 09:46:08;;;;;;;0.52;0.28;;;30.20;43.40;;;;;;5039534;28;20025;-73
2021/06/16 09:48:43;;;;;;;0.00;0.00;;;30.00;42.70;;;;;;5046666;28;20026;-72
2021/06/16 09:51:13;;;;;;;7.88;2.80;;;30.00;42.70;;;;;;5028010;28;20128;-73
2021/06/16 09:53:55;;;;;;;1.45;0.70;;;30.40;43.40;;;;;;4989899;28;20476;-74
2021/06/16 09:56:21;;;;;;;0.00;0.00;;;30.10;43.70;;;;;;4996538;28;20036;-73
2021/06/16 09:58:47;;;;;;;0.00;0.00;;;30.20;44.20;;;;;;5059556;28;20035;-73
2021/06/16 10:01:13;;;;;;;0.30;0.30;;;30.30;43.70;;;;;;4987142;28;20026;-73
2021/06/16 10:03:41;;;;;;;0.10;0.10;;;30.50;40.90;;;;;;5005386;28;20476;-73
2021/06/16 10:06:15;;;;;;;0.88;0.08;;;30.50;42.10;;;;;;5004004;28;20021;-73
2021/06/16 10:08:50;;;;;;;0.00;0.00;;;30.30;42.80;;;;;;5013294;28;20020;-73
2021/06/16 10:11:19;;;;;;;0.00;0.00;;;30.40;42.00;;;;;;5022638;28;20505;-74
2021/06/16 10:13:46;;;;;;;0.22;0.22;;;30.60;42.90;;;;;;5002498;28;20393;-73
2021/06/16 10:16:15;;;;;;;0.22;0.15;;;30.70;41.80;;;;;;4972042;28;20035;-73
2021/06/16 10:18:47;;;;;;;0.00;0.00;;;30.40;41.60;;;;;;5008652;28;20475;-73
2021/06/16 10:21:17;;;;;;;0.10;0.10;;;30.50;42.20;;;;;;5003687;28;20488;-73
2021/06/16 10:23:44;;;;;;;0.25;0.25;;;30.70;41.80;;;;;;5016362;28;20026;-73
2021/06/16 10:26:27;;;;;;;0.00;0.00;;;30.80;41.10;;;;;;5001449;28;20409;-74
2021/06/16 10:29:04;;;;;;;0.20;0.20;;;30.80;42.40;;;;;;5023430;28;20032;-72
2021/06/16 10:31:47;;;;;;;0.95;0.28;;;30.60;43.10;;;;;;5025251;28;20031;-72
2021/06/16 10:34:13;;;;;;;0.00;0.00;;;30.60;42.90;;;;;;5006722;28;20034;-71
2021/06/16 10:36:59;;;;;;;0.00;0.00;;;30.70;42.90;;;;;;4989545;28;20110;-72
2021/06/16 10:39:25;;;;;;;0.00;0.00;;;30.50;43.20;;;;;;5018519;28;20075;-71
2021/06/16 10:41:53;;;;;;;0.57;0.57;;;30.40;44.40;;;;;;4980599;28;20583;-72
2021/06/16 10:44:28;;;;;;;0.70;0.70;;;30.50;43.20;;;;;;5005019;28;20021;-71
2021/06/16 10:47:02;;;;;;;0.22;0.08;;;30.50;42.00;;;;;;5033691;28;20167;-72
2021/06/16 10:49:39;;;;;;;0.10;0.10;;;30.60;42.90;;;;;;5009230;28;20468;-71
2021/06/16 10:52:06;;;;;;;0.40;0.40;;;30.90;43.00;;;;;;4974897;28;20114;-71
2021/06/16 10:54:33;;;;;;;0.22;0.22;;;30.60;42.20;;;;;;5042349;28;20471;-72
2021/06/16 10:57:10;;;;;;;0.00;0.00;;;30.60;43.20;;;;;;5017933;28;20074;-71
2021/06/16 10:59:49;;;;;;;0.20;0.20;;;30.80;41.60;;;;;;5032464;28;20032;-72
2021/06/16 11:02:38;;;;;;;0.32;0.25;;;31.20;41.50;;;;;;5020278;28;20515;-70
2021/06/16 11:05:20;;;;;;;0.00;0.00;;;31.40;41.50;;;;;;4991962;28;20024;-72
2021/06/16 11:07:46;;;;;;;0.00;0.00;;;31.60;40.80;;;;;;5039758;28;20118;-71
2021/06/16 11:10:13;;;;;;;0.75;0.65;;;31.50;40.70;;;;;;5035340;28;20028;-71
2021/06/16 11:12:40;;;;;;;0.38;0.38;;;31.50;41.00;;;;;;5022799;28;20116;-72
2021/06/16 11:15:10;;;;;;;1.00;0.75;;;31.10;40.70;;;;;;4972128;28;20026;-71
2021/06/16 11:17:36;;;;;;;0.10;0.10;;;31.10;40.50;;;;;;4995893;28;20029;-71
2021/06/16 11:20:26;;;;;;;0.50;0.50;;;31.20;39.30;;;;;;5027152;28;20029;-72
2021/06/16 11:22:59;;;;;;;0.00;0.00;;;31.10;39.30;;;;;;5005073;28;20029;-71
2021/06/16 11:25:32;;;;;;;0.00;0.00;;;31.40;40.10;;;;;;5046327;28;20120;-72
2021/06/16 11:28:03;;;;;;;0.28;0.28;;;31.50;40.10;;;;;;5044378;28;20036;-71
2021/06/16 11:30:31;;;;;;;0.00;0.00;;;31.30;40.50;;;;;;5053656;28;20029;-72
2021/06/16 11:33:12;;;;;;;1.42;0.88;;;31.40;39.80;;;;;;5002968;28;20027;-72
2021/06/16 11:35:59;;;;;;;0.03;0.03;;;31.50;39.40;;;;;;4999557;28;20038;-72
2021/06/16 11:38:30;;;;;;;1.85;0.65;;;31.70;40.10;;;;;;4999835;28;20062;-72
2021/06/16 11:40:56;;;;;;;0.05;0.05;;;31.80;37.90;;;;;;5020904;28;20021;-72
2021/06/16 11:43:40;;;;;;;0.20;0.20;;;31.80;38.10;;;;;;5029739;28;20461;-72
2021/06/16 11:46:33;;;;;;;0.28;0.28;;;31.70;38.50;;;;;;4997985;28;20023;-72
2021/06/16 11:48:59;;;;;;;0.00;0.00;;;31.40;38.50;;;;;;5000075;28;20032;-71
2021/06/16 11:51:30;;;;;;;0.25;0.25;;;31.30;40.20;;;;;;4992850;28;20076;-72
2021/06/16 11:54:20;;;;;;;0.17;0.17;;;31.00;39.40;;;;;;4993237;28;20077;-72
2021/06/16 11:56:48;;;;;;;0.55;0.50;;;31.00;40.50;;;;;;4994564;28;20069;-72
2021/06/16 11:59:14;;;;;;;0.10;0.10;;;31.10;39.30;;;;;;4994401;28;20027;-71
2021/06/16 12:01:40;;;;;;;0.47;0.10;;;31.00;39.40;;;;;;4966217;28;20031;-72
2021/06/16 12:04:13;;;;;;;0.55;0.32;;;31.10;39.30;;;;;;4979483;28;20023;-70
2021/06/16 12:06:40;;;;;;;0.00;0.00;;;31.10;40.00;;;;;;4980434;28;20486;-71
2021/06/16 12:09:06;;;;;;;2.45;1.00;;;31.00;40.80;;;;;;4985336;28;20049;-72
2021/06/16 12:11:35;;;;;;;0.95;0.95;;;31.10;40.50;;;;;;4953755;28;20042;-72
2021/06/16 12:14:03;;;;;;;0.15;0.13;;;31.00;40.70;;;;;;5021806;28;20096;-72
2021/06/16 12:16:42;;;;;;;0.15;0.10;;;30.80;40.90;;;;;;5044711;28;20537;-71
2021/06/16 12:19:20;;;;;;;0.00;0.00;;;30.70;40.10;;;;;;4996978;28;20031;-72
2021/06/16 12:21:55;;;;;;;0.40;0.40;;;30.70;40.80;;;;;;4973434;28;20518;-72
2021/06/16 12:24:32;;;;;;;0.15;0.15;;;30.50;40.70;;;;;;5036097;28;20498;-72
2021/06/16 12:27:00;;;;;;;0.10;0.10;;;30.30;40.90;;;;;;4980606;28;20126;-72
2021/06/16 12:29:26;;;;;;;0.47;0.38;;;30.10;41.00;;;;;;5028848;28;20062;-71
2021/06/16 12:31:53;;;;;;;0.15;0.15;;;30.00;40.10;;;;;;4987819;28;20510;-72
2021/06/16 12:37:08;;;;;;;1.25;0.82;;;29.90;40.50;;;;;;4974011;28;20027;-71
2021/06/16 12:39:34;;;;;;;0.00;0.00;;;30.00;40.50;;;;;;5006423;28;20093;-71
2021/06/16 12:42:06;;;;;;;0.40;0.10;;;30.10;39.90;;;;;;4995843;28;20027;-72
2021/06/16 12:44:34;;;;;;;0.00;0.00;;;30.30;41.10;;;;;;4994369;28;20023;-72
2021/06/16 12:47:01;;;;;;;0.47;0.47;;;30.30;40.60;;;;;;5024995;28;20111;-71
2021/06/16 12:49:38;;;;;;;0.00;0.00;;;30.30;38.90;;;;;;4958088;28;20028;-71
2021/06/16 12:52:09;;;;;;;0.45;0.35;;;30.30;38.30;;;;;;5044090;28;20380;-71
2021/06/16 12:54:36;;;;;;;0.35;0.13;;;30.30;38.60;;;;;;5045504;28;20449;-72
2021/06/16 12:57:13;;;;;;;0.10;0.10;;;30.00;38.70;;;;;;4975491;28;20036;-71